createdAt,value
2019-06-20T00:00:50.690Z,1.70
2019-06-20T00:03:17.185Z,1.50
2019-06-20T00:05:43.512Z,1.65
2019-06-20T00:08:10.332Z,1.65
2019-06-20T00:10:36.642Z,1.62
2019-06-20T00:13:03.670Z,1.92
2019-06-20T00:15:30.143Z,1.27
2019-06-20T00:17:57.016Z,1.70
2019-06-20T00:20:26.204Z,1.40
2019-06-20T00:22:52.603Z,1.30
2019-06-20T00:25:18.927Z,1.60
2019-06-20T00:27:45.332Z,1.60
2019-06-20T00:30:11.632Z,1.40
2019-06-20T00:32:38.396Z,1.50
2019-06-20T00:35:05.738Z,1.30
2019-06-20T00:37:32.426Z,1.17
2019-06-20T00:39:58.960Z,1.87
2019-06-20T00:42:25.664Z,1.72
2019-06-20T00:44:52.512Z,1.12
2019-06-20T00:47:19.061Z,1.15
2019-06-20T00:49:45.797Z,1.45
2019-06-20T00:52:12.580Z,1.60
2019-06-20T00:54:39.266Z,1.40
2019-06-20T00:57:06.003Z,1.22
2019-06-20T00:59:32.341Z,0.93
2019-06-20T01:01:58.760Z,1.37
2019-06-20T01:04:25.099Z,1.22
2019-06-20T01:06:51.561Z,1.20
2019-06-20T01:09:17.988Z,1.75
2019-06-20T01:11:44.311Z,1.72
2019-06-20T01:14:10.935Z,1.20
2019-06-20T01:16:37.387Z,1.70
2019-06-20T01:19:03.844Z,1.20
2019-06-20T01:21:30.153Z,1.55
2019-06-20T01:23:56.883Z,1.32
2019-06-20T01:26:23.164Z,1.20
2019-06-20T01:28:49.496Z,1.30
2019-06-20T01:31:15.917Z,1.60
2019-06-20T01:33:42.315Z,1.15
2019-06-20T01:36:08.871Z,1.45
2019-06-20T01:38:35.172Z,1.47
2019-06-20T01:41:05.685Z,1.27
2019-06-20T01:43:29.819Z,1.37
2019-06-20T01:45:56.124Z,1.20
2019-06-20T01:48:22.454Z,1.30
2019-06-20T01:50:48.867Z,1.50
2019-06-20T01:53:15.197Z,1.20
2019-06-20T01:55:41.976Z,1.10
2019-06-20T01:58:08.746Z,1.25
2019-06-20T02:00:46.675Z,1.25
2019-06-20T02:03:13.481Z,1.17
2019-06-20T02:05:39.802Z,1.10
2019-06-20T02:08:06.210Z,1.22
2019-06-20T02:10:32.725Z,1.37
2019-06-20T02:12:59.024Z,1.25
2019-06-20T02:15:25.329Z,1.40
2019-06-20T02:17:51.751Z,1.20
2019-06-20T02:20:30.357Z,1.40
2019-06-20T02:22:56.791Z,1.07
2019-06-20T02:25:23.225Z,1.07
2019-06-20T02:27:49.663Z,1.30
2019-06-20T02:30:16.009Z,1.00
2019-06-20T02:32:42.308Z,1.00
2019-06-20T02:35:08.780Z,1.40
2019-06-20T02:37:35.211Z,1.10
2019-06-20T02:40:02.230Z,1.25
2019-06-20T02:42:28.673Z,1.10
2019-06-20T02:44:55.209Z,0.93
2019-06-20T02:47:21.532Z,1.10
2019-06-20T02:49:47.835Z,1.10
2019-06-20T02:52:14.145Z,1.02
2019-06-20T02:54:40.481Z,1.22
2019-06-20T02:57:07.042Z,1.05
2019-06-20T02:59:33.388Z,1.07
2019-06-20T03:01:59.702Z,1.07
2019-06-20T03:04:26.160Z,1.65
2019-06-20T03:06:52.480Z,1.80
2019-06-20T03:09:18.801Z,1.92
2019-06-20T03:11:52.094Z,2.30
2019-06-20T03:14:20.953Z,2.25
2019-06-20T03:16:53.871Z,2.15
2019-06-20T03:19:20.297Z,2.10
2019-06-20T03:21:46.836Z,2.10
2019-06-20T03:24:13.130Z,1.90
2019-06-20T03:26:40.231Z,2.00
2019-06-20T03:29:06.537Z,3.05
2019-06-20T03:31:32.918Z,2.27
2019-06-20T03:33:59.256Z,1.92
2019-06-20T03:36:25.580Z,2.08
2019-06-20T03:38:51.896Z,2.42
2019-06-20T03:41:18.890Z,1.95
2019-06-20T03:43:45.394Z,2.40
2019-06-20T03:46:11.695Z,1.72
2019-06-20T03:48:38.187Z,1.77
2019-06-20T03:51:04.614Z,2.60
2019-06-20T03:53:30.912Z,1.98
2019-06-20T03:55:57.233Z,2.12
2019-06-20T03:58:23.647Z,2.30
2019-06-20T04:00:49.978Z,2.10
2019-06-20T04:03:17.175Z,2.17
2019-06-20T04:05:43.561Z,2.05
2019-06-20T04:08:10.100Z,1.77
2019-06-20T04:10:36.401Z,1.90
2019-06-20T04:13:03.589Z,1.65
2019-06-20T04:15:30.318Z,1.77
2019-06-20T04:17:56.591Z,1.90
2019-06-20T04:20:23.487Z,1.50
2019-06-20T04:22:49.784Z,1.62
2019-06-20T04:25:16.273Z,1.47
2019-06-20T04:27:42.698Z,1.90
2019-06-20T04:30:09.031Z,1.50
2019-06-20T04:32:35.359Z,1.82
2019-06-20T04:35:03.507Z,1.98
2019-06-20T04:37:29.873Z,1.90
2019-06-20T04:39:56.169Z,2.02
2019-06-20T04:42:22.777Z,2.20
2019-06-20T04:44:50.814Z,2.17
2019-06-20T04:47:17.656Z,1.80
2019-06-20T04:49:43.980Z,2.00
2019-06-20T04:52:12.374Z,1.90
2019-06-20T04:54:38.654Z,2.30
2019-06-20T04:57:04.971Z,1.70
2019-06-20T04:59:31.271Z,1.95
2019-06-20T05:01:57.715Z,1.87
2019-06-20T05:04:24.004Z,2.10
2019-06-20T05:06:54.121Z,1.92
2019-06-20T05:09:20.427Z,1.92
2019-06-20T05:11:46.932Z,1.67
2019-06-20T05:14:13.235Z,1.85
2019-06-20T05:16:39.658Z,1.70
2019-06-20T05:19:05.971Z,1.60
2019-06-20T05:21:32.395Z,1.25
2019-06-20T05:23:58.741Z,1.98
2019-06-20T05:26:25.155Z,1.47
2019-06-20T05:28:51.580Z,1.35
2019-06-20T05:31:17.912Z,1.37
2019-06-20T05:33:47.167Z,1.40
2019-06-20T05:36:13.467Z,1.27
2019-06-20T05:38:39.895Z,1.50
2019-06-20T05:41:06.212Z,1.50
2019-06-20T05:43:32.540Z,1.47
2019-06-20T05:46:08.896Z,1.45
2019-06-20T05:48:26.948Z,1.37
2019-06-20T05:50:53.367Z,1.40
2019-06-20T05:53:19.784Z,1.20
2019-06-20T05:55:46.224Z,1.75
2019-06-20T05:58:12.645Z,1.25
2019-06-20T06:00:39.019Z,1.70
2019-06-20T06:03:07.128Z,1.30
2019-06-20T06:05:34.018Z,1.30
2019-06-20T06:08:00.592Z,1.35
2019-06-20T06:10:27.115Z,1.32
2019-06-20T06:12:53.557Z,1.27
2019-06-20T06:15:20.021Z,1.02
2019-06-20T06:17:46.318Z,1.20
2019-06-20T06:20:12.812Z,1.47
2019-06-20T06:22:39.112Z,1.32
2019-06-20T06:25:05.550Z,1.00
2019-06-20T06:27:32.007Z,1.10
2019-06-20T06:29:58.312Z,1.50
2019-06-20T06:32:39.222Z,1.15
2019-06-20T06:34:53.028Z,1.17
2019-06-20T06:37:19.544Z,1.62
2019-06-20T06:39:46.141Z,1.27
2019-06-20T06:42:12.424Z,1.27
2019-06-20T06:44:38.756Z,1.10
2019-06-20T06:47:05.277Z,1.47
2019-06-20T06:49:31.576Z,1.15
2019-06-20T06:51:58.035Z,1.10
2019-06-20T06:54:24.637Z,1.20
2019-06-20T06:56:51.068Z,1.35
2019-06-20T06:59:19.817Z,1.05
2019-06-20T07:01:46.130Z,1.05
2019-06-20T07:04:12.527Z,1.00
2019-06-20T07:06:38.840Z,1.22
2019-06-20T07:09:08.734Z,1.17
2019-06-20T07:11:35.701Z,1.12
2019-06-20T07:14:02.399Z,1.10
2019-06-20T07:16:29.230Z,1.10
2019-06-20T07:18:55.950Z,1.00
2019-06-20T07:21:22.317Z,1.20
2019-06-20T07:23:48.824Z,1.05
2019-06-20T07:26:15.331Z,1.10
2019-06-20T07:28:45.316Z,0.90
2019-06-20T07:31:11.617Z,0.90
2019-06-20T07:33:38.078Z,1.10
2019-06-20T07:36:05.534Z,1.05
2019-06-20T07:38:31.840Z,1.10
2019-06-20T07:40:58.207Z,0.98
2019-06-20T07:43:24.607Z,1.05
2019-06-20T07:46:01.947Z,0.90
2019-06-20T07:48:19.390Z,1.02
2019-06-20T07:50:45.908Z,0.80
2019-06-20T07:53:12.456Z,0.90
2019-06-20T07:55:38.815Z,1.07
2019-06-20T07:58:05.433Z,0.93
2019-06-20T08:00:34.772Z,1.00
2019-06-20T08:03:01.306Z,0.95
2019-06-20T08:05:27.969Z,0.72
2019-06-20T08:07:54.279Z,1.10
2019-06-20T08:10:20.715Z,0.95
2019-06-20T08:12:47.413Z,1.00
2019-06-20T08:15:18.768Z,0.82
2019-06-20T08:17:45.186Z,1.10
2019-06-20T08:20:13.706Z,0.68
2019-06-20T08:22:40.031Z,0.88
2019-06-20T08:25:06.860Z,0.88
2019-06-20T08:27:47.315Z,0.90
2019-06-20T08:30:13.849Z,0.88
2019-06-20T08:32:40.158Z,0.80
2019-06-20T08:35:06.670Z,1.00
2019-06-20T08:37:32.972Z,1.02
2019-06-20T08:40:00.003Z,0.95
2019-06-20T08:42:26.534Z,0.90
2019-06-20T08:44:53.053Z,0.98
2019-06-20T08:47:19.372Z,0.70
2019-06-20T08:49:45.788Z,0.80
2019-06-20T08:52:12.209Z,0.75
2019-06-20T08:54:39.607Z,1.00
2019-06-20T08:57:06.064Z,0.82
2019-06-20T08:59:32.481Z,0.75
2019-06-20T09:04:29.391Z,0.70
2019-06-20T09:06:57.518Z,0.80
2019-06-20T09:09:24.216Z,0.80
2019-06-20T09:11:50.546Z,0.80
2019-06-20T09:14:16.969Z,0.82
2019-06-20T09:16:43.539Z,0.60
2019-06-20T09:19:10.063Z,0.72
2019-06-20T09:21:36.380Z,0.80
2019-06-20T09:24:04.120Z,0.88
2019-06-20T09:26:30.741Z,1.00
2019-06-20T09:28:57.218Z,0.75
2019-06-20T09:31:23.744Z,0.70
2019-06-20T09:33:52.154Z,0.80
2019-06-20T09:36:18.271Z,0.75
2019-06-20T09:38:44.576Z,0.70
2019-06-20T09:41:11.843Z,0.72
2019-06-20T09:43:38.368Z,0.60
2019-06-20T09:46:04.835Z,0.85
2019-06-20T09:48:31.355Z,1.05
2019-06-20T09:50:58.629Z,0.82
2019-06-20T09:53:24.996Z,1.00
2019-06-20T09:55:51.776Z,0.80
2019-06-20T09:58:18.543Z,1.12
2019-06-20T10:00:49.253Z,0.75
2019-06-20T10:03:17.359Z,0.90
2019-06-20T10:05:46.011Z,0.80
2019-06-20T10:08:21.580Z,0.50
2019-06-20T10:10:48.912Z,0.68
2019-06-20T10:13:15.114Z,0.60
2019-06-20T10:15:41.720Z,0.70
2019-06-20T10:18:08.178Z,0.95
2019-06-20T10:20:34.888Z,1.10
2019-06-20T10:23:01.170Z,1.17
2019-06-20T10:25:27.463Z,0.90
2019-06-20T10:27:54.243Z,0.80
2019-06-20T10:30:22.972Z,0.50
2019-06-20T10:32:50.876Z,0.50
2019-06-20T10:35:18.440Z,0.78
2019-06-20T10:37:45.603Z,0.40
2019-06-20T10:40:13.622Z,0.60
2019-06-20T10:42:40.036Z,0.90
2019-06-20T10:45:06.694Z,0.72
2019-06-20T10:47:36.090Z,0.90
2019-06-20T10:50:02.906Z,0.70
2019-06-20T10:52:29.308Z,0.70
2019-06-20T10:54:55.854Z,0.50
2019-06-20T10:57:22.279Z,0.90
2019-06-20T10:59:50.891Z,0.60
2019-06-20T11:02:17.666Z,0.60
2019-06-20T11:04:44.096Z,0.70
2019-06-20T11:07:10.739Z,0.90
2019-06-20T11:09:37.210Z,0.60
2019-06-20T11:12:03.555Z,0.62
2019-06-20T11:14:30.457Z,0.80
2019-06-20T11:16:57.073Z,0.60
2019-06-20T11:19:23.406Z,0.65
2019-06-20T11:21:49.733Z,0.60
2019-06-20T11:24:16.182Z,0.60
2019-06-20T11:26:43.077Z,0.60
2019-06-20T11:29:09.562Z,0.60
2019-06-20T11:31:37.499Z,0.70
2019-06-20T11:34:03.995Z,0.65
2019-06-20T11:36:30.308Z,0.50
2019-06-20T11:38:56.716Z,0.57
2019-06-20T11:41:23.130Z,0.50
2019-06-20T11:43:54.945Z,0.60
2019-06-20T11:46:23.515Z,0.70
2019-06-20T11:48:50.400Z,0.60
2019-06-20T11:51:16.823Z,0.90
2019-06-20T11:53:43.136Z,0.80
2019-06-20T11:56:10.161Z,0.50
2019-06-20T11:58:36.542Z,0.60
2019-06-20T12:01:04.140Z,0.50
2019-06-20T12:03:30.895Z,0.50
2019-06-20T12:05:57.279Z,1.10
2019-06-20T12:08:23.716Z,0.70
2019-06-20T12:10:50.037Z,0.80
2019-06-20T12:13:16.574Z,0.85
2019-06-20T12:15:44.401Z,0.70
2019-06-20T12:18:10.776Z,0.57
2019-06-20T12:20:37.868Z,0.70
2019-06-20T12:23:04.717Z,0.50
2019-06-20T12:25:31.024Z,1.25
2019-06-20T12:27:57.452Z,1.02
2019-06-20T12:30:24.471Z,2.10
2019-06-20T12:32:51.024Z,1.00
2019-06-20T12:35:19.437Z,0.75
2019-06-20T12:37:46.049Z,0.80
2019-06-20T12:40:13.301Z,0.85
2019-06-20T12:42:41.475Z,0.70
2019-06-20T12:45:08.689Z,0.90
2019-06-20T12:47:35.108Z,0.60
2019-06-20T12:50:03.780Z,0.78
2019-06-20T12:52:30.074Z,0.70
2019-06-20T12:54:56.571Z,0.50
2019-06-20T12:57:23.272Z,0.70
2019-06-20T12:59:49.567Z,0.65
2019-06-20T13:02:15.881Z,0.80
2019-06-20T13:04:42.201Z,0.50
2019-06-20T13:07:08.905Z,0.80
2019-06-20T13:09:35.383Z,0.85
2019-06-20T13:12:01.887Z,0.60
2019-06-20T13:14:28.192Z,0.50
2019-06-20T13:16:54.742Z,0.50
2019-06-20T13:19:21.113Z,0.50
2019-06-20T13:21:48.609Z,0.50
2019-06-20T13:24:15.537Z,0.72
2019-06-20T13:26:42.510Z,0.53
2019-06-20T13:29:09.407Z,0.57
2019-06-20T13:31:51.464Z,0.70
2019-06-20T13:34:04.082Z,0.50
2019-06-20T13:36:30.713Z,0.55
2019-06-20T13:38:58.941Z,0.50
2019-06-20T13:41:26.776Z,0.55
2019-06-20T13:43:53.356Z,0.50
2019-06-20T13:46:19.783Z,0.57
2019-06-20T13:48:47.436Z,0.40
2019-06-20T13:51:13.999Z,0.57
2019-06-20T13:53:41.182Z,0.70
2019-06-20T13:56:08.548Z,0.45
2019-06-20T13:58:34.983Z,0.42
2019-06-20T14:01:01.609Z,0.60
2019-06-20T14:03:27.926Z,0.60
2019-06-20T14:05:54.469Z,0.50
2019-06-20T14:08:20.994Z,0.42
2019-06-20T14:10:47.663Z,0.50
2019-06-20T14:13:19.297Z,0.50
2019-06-20T14:15:43.186Z,0.62
2019-06-20T14:18:10.762Z,0.68
2019-06-20T14:20:37.054Z,0.60
2019-06-20T14:23:04.596Z,0.60
2019-06-20T14:25:34.154Z,0.50
2019-06-20T14:27:59.243Z,0.60
2019-06-20T14:30:26.863Z,0.40
2019-06-20T14:32:54.010Z,0.40
2019-06-20T14:35:20.884Z,0.70
2019-06-20T14:37:47.821Z,0.80
2019-06-20T14:40:15.547Z,0.70
2019-06-20T14:42:42.972Z,0.50
2019-06-20T14:45:10.312Z,0.60
2019-06-20T14:47:36.859Z,0.65
2019-06-20T14:50:07.382Z,0.62
2019-06-20T14:52:33.819Z,0.55
2019-06-20T14:55:00.245Z,0.70
2019-06-20T14:57:26.562Z,0.70
2019-06-20T14:59:54.341Z,0.80
2019-06-20T15:02:20.780Z,1.10
2019-06-20T15:04:47.866Z,0.80
2019-06-20T15:07:14.421Z,0.57
2019-06-20T15:09:40.846Z,0.90
2019-06-20T15:12:07.382Z,0.80
2019-06-20T15:14:33.693Z,1.00
2019-06-20T15:16:59.998Z,0.95
2019-06-20T15:19:26.303Z,0.98
2019-06-20T15:21:54.163Z,1.20
2019-06-20T15:24:20.687Z,0.80
2019-06-20T15:26:47.624Z,1.00
2019-06-20T15:29:15.550Z,0.90
2019-06-20T15:31:43.786Z,1.10
2019-06-20T15:34:09.974Z,0.75
2019-06-20T15:36:36.292Z,0.90
2019-06-20T15:39:05.914Z,1.02
2019-06-20T15:41:32.216Z,1.10
2019-06-20T15:43:58.531Z,0.75
2019-06-20T15:46:25.036Z,1.00
2019-06-20T15:48:51.422Z,0.80
2019-06-20T15:51:17.676Z,0.80
2019-06-20T15:53:44.068Z,0.80
2019-06-20T15:56:10.376Z,0.70
2019-06-20T15:58:36.684Z,0.70
2019-06-20T16:01:03.153Z,0.80
2019-06-20T16:03:29.459Z,0.80
2019-06-20T16:05:55.768Z,1.00
2019-06-20T16:08:22.100Z,0.80
2019-06-20T16:10:48.512Z,0.98
2019-06-20T16:13:14.850Z,0.70
2019-06-20T16:15:41.139Z,0.75
2019-06-20T16:18:16.030Z,0.70
2019-06-20T16:20:42.416Z,0.78
2019-06-20T16:23:08.731Z,0.95
2019-06-20T16:25:35.180Z,0.60
2019-06-20T16:28:01.587Z,0.80
2019-06-20T16:30:27.972Z,1.20
2019-06-20T16:32:54.795Z,4.30
2019-06-20T16:35:21.194Z,2.33
2019-06-20T16:37:47.519Z,2.92
2019-06-20T16:40:13.949Z,2.10
2019-06-20T16:42:40.359Z,1.60
2019-06-20T16:45:07.501Z,0.90
2019-06-20T16:47:33.824Z,1.17
2019-06-20T16:50:00.299Z,0.95
2019-06-20T16:52:26.924Z,1.20
2019-06-20T16:54:53.273Z,1.10
2019-06-20T16:57:22.760Z,0.90
2019-06-20T16:59:52.433Z,1.17
2019-06-20T17:02:18.991Z,0.85
2019-06-20T17:04:45.400Z,1.22
2019-06-20T17:07:11.861Z,1.10
2019-06-20T17:09:38.167Z,1.10
2019-06-20T17:12:04.583Z,1.30
2019-06-20T17:14:30.926Z,1.10
2019-06-20T17:16:57.430Z,1.10
2019-06-20T17:19:23.847Z,1.50
2019-06-20T17:21:50.328Z,1.67
2019-06-20T17:24:16.796Z,1.60
2019-06-20T17:26:43.307Z,1.62
2019-06-20T17:29:12.177Z,1.30
2019-06-20T17:31:38.636Z,1.40
2019-06-20T17:34:05.034Z,1.25
2019-06-20T17:36:31.337Z,1.37
2019-06-20T17:38:57.819Z,1.65
2019-06-20T17:41:24.240Z,1.45
2019-06-20T17:43:50.897Z,1.37
2019-06-20T17:46:22.820Z,1.30
2019-06-20T17:48:56.257Z,1.42
2019-06-20T17:51:24.175Z,1.50
2019-06-20T17:53:50.685Z,1.20
2019-06-20T17:56:18.110Z,1.70
2019-06-20T17:58:44.596Z,1.47
2019-06-20T18:01:10.992Z,1.57
2019-06-20T18:03:37.482Z,1.62
2019-06-20T18:06:03.907Z,1.50
2019-06-20T18:08:30.230Z,1.10
2019-06-20T18:10:56.696Z,1.60
2019-06-20T18:13:23.005Z,1.12
2019-06-20T18:15:49.413Z,1.27
2019-06-20T18:18:16.075Z,1.17
2019-06-20T18:20:43.492Z,1.50
2019-06-20T18:23:09.922Z,1.05
2019-06-20T18:25:36.242Z,1.10
2019-06-20T18:28:02.770Z,1.00
2019-06-20T18:30:43.500Z,1.50
2019-06-20T18:33:09.923Z,1.60
2019-06-20T18:35:36.430Z,1.25
2019-06-20T18:38:03.539Z,1.47
2019-06-20T18:40:31.453Z,1.45
2019-06-20T18:42:58.239Z,1.07
2019-06-20T18:45:25.059Z,1.00
2019-06-20T18:47:52.591Z,1.10
2019-06-20T18:50:19.173Z,1.00
2019-06-20T18:52:52.208Z,1.00
2019-06-20T18:55:13.831Z,1.40
2019-06-20T18:57:40.150Z,1.20
2019-06-20T19:00:07.951Z,1.22
2019-06-20T19:02:34.507Z,1.37
2019-06-20T19:05:00.952Z,1.22
2019-06-20T19:07:27.265Z,1.00
2019-06-20T19:09:53.674Z,1.30
2019-06-20T19:12:20.005Z,1.00
2019-06-20T19:14:46.516Z,1.20
2019-06-20T19:17:16.589Z,1.32
2019-06-20T19:19:43.239Z,1.15
2019-06-20T19:22:09.550Z,1.45
2019-06-20T19:24:35.858Z,1.22
2019-06-20T19:27:02.189Z,1.22
2019-06-20T19:29:30.473Z,1.35
2019-06-20T19:31:56.887Z,1.20
2019-06-20T19:34:24.365Z,1.15
2019-06-20T19:36:51.069Z,1.20
2019-06-20T19:39:17.562Z,1.20
2019-06-20T19:41:44.033Z,1.20
2019-06-20T19:44:11.248Z,1.20
2019-06-20T19:46:37.769Z,1.02
2019-06-20T19:49:04.193Z,1.25
2019-06-20T19:51:32.372Z,1.20
2019-06-20T19:53:58.923Z,1.22
2019-06-20T19:56:25.215Z,1.22
2019-06-20T19:58:51.589Z,1.12
2019-06-20T20:01:17.967Z,1.25
2019-06-20T20:03:44.372Z,1.10
2019-06-20T20:06:10.834Z,0.98
2019-06-20T20:08:37.141Z,0.90
2019-06-20T20:11:03.459Z,1.00
2019-06-20T20:13:29.997Z,1.25
2019-06-20T20:15:56.332Z,1.20
2019-06-20T20:18:22.686Z,1.27
2019-06-20T20:20:48.964Z,1.35
2019-06-20T20:23:15.284Z,1.15
2019-06-20T20:25:41.689Z,1.12
2019-06-20T20:28:08.007Z,1.30
2019-06-20T20:30:34.407Z,1.15
2019-06-20T20:33:02.132Z,1.30
2019-06-20T20:35:35.302Z,1.30
2019-06-20T20:37:58.780Z,1.07
2019-06-20T20:40:25.119Z,1.10
2019-06-20T20:42:51.440Z,1.32
2019-06-20T20:45:17.954Z,1.17
2019-06-20T20:47:44.296Z,0.90
2019-06-20T20:50:11.605Z,1.50
2019-06-20T20:52:37.899Z,1.00
2019-06-20T20:55:05.628Z,1.00
2019-06-20T20:57:31.928Z,1.20
2019-06-20T20:59:58.255Z,0.78
2019-06-20T21:02:24.668Z,1.10
2019-06-20T21:04:51.072Z,1.10
2019-06-20T21:07:17.395Z,0.98
2019-06-20T21:09:43.699Z,1.00
2019-06-20T21:12:10.035Z,0.90
2019-06-20T21:14:36.346Z,1.52
2019-06-20T21:17:02.647Z,0.93
2019-06-20T21:19:29.236Z,0.90
2019-06-20T21:21:55.503Z,1.10
2019-06-20T21:24:21.827Z,1.10
2019-06-20T21:26:49.943Z,0.70
2019-06-20T21:29:16.944Z,1.00
2019-06-20T21:31:43.311Z,0.90
2019-06-20T21:34:09.627Z,0.80
2019-06-20T21:36:35.962Z,1.00
2019-06-20T21:39:04.770Z,0.90
2019-06-20T21:41:31.202Z,1.00
2019-06-20T21:43:57.614Z,0.93
2019-06-20T21:46:24.487Z,0.78
2019-06-20T21:48:50.935Z,1.20
2019-06-20T21:51:17.474Z,1.10
2019-06-20T21:53:43.774Z,0.90
2019-06-20T21:56:10.298Z,0.90
2019-06-20T21:58:36.603Z,1.07
2019-06-20T22:01:03.202Z,0.98
2019-06-20T22:03:29.708Z,0.95
2019-06-20T22:05:56.007Z,0.70
2019-06-20T22:08:22.430Z,0.82
2019-06-20T22:10:48.769Z,0.93
2019-06-20T22:13:15.288Z,0.80
2019-06-20T22:15:41.597Z,0.80
2019-06-20T22:18:07.895Z,0.98
2019-06-20T22:20:34.227Z,1.00
2019-06-20T22:23:00.581Z,0.88
2019-06-20T22:25:26.992Z,0.90
2019-06-20T22:27:53.648Z,1.00
2019-06-20T22:30:43.597Z,1.02
2019-06-20T22:33:09.915Z,0.60
2019-06-20T22:35:36.439Z,0.90
2019-06-20T22:38:03.006Z,0.85
2019-06-20T22:40:29.539Z,0.80
2019-06-20T22:42:56.402Z,0.70
2019-06-20T22:45:22.796Z,0.95
2019-06-20T22:47:49.126Z,0.75
2019-06-20T22:50:15.424Z,1.02
2019-06-20T22:52:42.064Z,0.80
2019-06-20T22:55:08.463Z,0.72
2019-06-20T22:57:34.767Z,0.60
2019-06-20T23:00:01.602Z,0.70
2019-06-20T23:02:27.892Z,0.90
2019-06-20T23:04:54.202Z,0.90
2019-06-20T23:07:20.515Z,0.60
2019-06-20T23:09:47.028Z,0.75
2019-06-20T23:12:13.359Z,0.85
2019-06-20T23:14:39.655Z,1.22
2019-06-20T23:17:05.959Z,0.80
2019-06-20T23:19:32.286Z,0.70
2019-06-20T23:21:58.588Z,0.70
2019-06-20T23:24:24.924Z,0.90
2019-06-20T23:26:51.356Z,0.70
2019-06-20T23:29:23.548Z,1.00
2019-06-20T23:31:52.616Z,0.60
2019-06-20T23:34:19.043Z,0.80
2019-06-20T23:36:45.380Z,0.82
2019-06-20T23:39:11.672Z,0.65
2019-06-20T23:41:38.192Z,0.62
2019-06-20T23:44:04.826Z,0.60
2019-06-20T23:46:31.224Z,0.80
2019-06-20T23:48:57.671Z,0.78
2019-06-20T23:51:25.902Z,0.70
2019-06-20T23:53:52.229Z,0.70
2019-06-20T23:56:19.447Z,0.70
2019-06-20T23:58:45.874Z,0.82
